Flowerfield, Illinois
Current Conditions -  °F | °C
As of 1:51 PM on Saturday 20 Dec 2014 (Local Time) from KORD Reporting Station
Overcast Overcast  
Wind Chill: 26°   Ceiling: 6000
Heat Index: 32°   Visibility: 8mi
Dew Point: 23°   Wind: 7mph
Humidity: 69%   Direction: 230°SW
Pressure: 30.23"   Gusts: NA
Location:  41.8742°N, 88.0172°W
Report Text: KORD 201951Z 23006KT 8SM SCT045 OVC060 00/M05 A3023 RMK AO2 SLP245 T00001050
Loading
Personal Weather Stations






























Interactive Weather Map New forecast layout! Learn more

10-Day Weather Forecast

Advertisements
Track Severe Weather on mobile